Time;durP1;ratioP1;P1;durP2;ratioP2;P2;SDS_P1;SDS_P2;PMS_P1;PMS_P2;Temp;Humidity;BMP_temperature;BMP_pressure;BME280_temperature;BME280_humidity;BME280_pressure;Samples;Min_cycle;Max_cycle;Signal;HPM_P1;HPM_P2
2021/06/19 00:00:29;;;;;;;9.98;8.98;;;19.20;99.90;;;;;;5013221;28;20029;-76
2021/06/19 00:02:55;;;;;;;10.18;9.18;;;19.10;99.90;;;;;;5030588;28;20477;-75
2021/06/19 00:05:21;;;;;;;12.88;9.35;;;19.10;99.90;;;;;;5030692;28;20421;-75
2021/06/19 00:07:47;;;;;;;10.70;9.23;;;19.10;99.90;;;;;;5012774;28;20048;-75
2021/06/19 00:10:14;;;;;;;10.90;9.80;;;19.00;99.90;;;;;;5030709;28;20025;-75
2021/06/19 00:12:41;;;;;;;11.82;10.10;;;19.00;99.90;;;;;;5030429;28;20033;-75
2021/06/19 00:15:10;;;;;;;15.95;11.05;;;19.00;99.90;;;;;;5030783;28;20474;-75
2021/06/19 00:17:36;;;;;;;11.63;10.43;;;19.00;99.90;;;;;;5012518;28;20402;-75
2021/06/19 00:20:15;;;;;;;14.98;11.43;;;19.00;99.90;;;;;;5030574;28;20032;-76
2021/06/19 00:22:41;;;;;;;14.02;10.90;;;19.00;99.90;;;;;;5012453;28;20017;-76
2021/06/19 00:25:09;;;;;;;14.30;11.98;;;19.00;99.90;;;;;;5012565;28;20103;-75
2021/06/19 00:27:35;;;;;;;13.48;12.02;;;19.00;99.90;;;;;;5012301;28;20055;-75
2021/06/19 00:30:02;;;;;;;15.30;11.88;;;19.00;99.90;;;;;;5030285;28;20163;-75
2021/06/19 00:32:28;;;;;;;13.15;11.77;;;18.90;99.90;;;;;;5030289;28;20036;-75
2021/06/19 00:34:53;;;;;;;15.55;13.23;;;18.90;99.90;;;;;;5030118;28;20060;-75
2021/06/19 00:37:19;;;;;;;15.02;12.55;;;18.80;99.90;;;;;;5030104;28;20060;-75
2021/06/19 00:39:44;;;;;;;16.48;13.65;;;18.80;99.90;;;;;;5030382;28;20076;-75
2021/06/19 00:42:10;;;;;;;19.08;15.48;;;18.80;99.90;;;;;;5012177;28;20033;-75
2021/06/19 00:44:36;;;;;;;16.92;15.13;;;18.70;99.90;;;;;;5029934;28;20022;-75
2021/06/19 00:47:01;;;;;;;18.33;15.02;;;18.70;99.90;;;;;;5012330;28;20482;-75
2021/06/19 00:49:27;;;;;;;18.95;13.93;;;18.70;99.90;;;;;;5011987;28;20036;-75
2021/06/19 00:51:53;;;;;;;18.35;13.27;;;18.70;99.90;;;;;;5029855;28;20021;-76
2021/06/19 00:54:19;;;;;;;15.20;13.60;;;18.70;99.90;;;;;;5011977;28;20124;-75
2021/06/19 00:56:46;;;;;;;19.45;13.95;;;18.70;99.90;;;;;;5029739;28;20033;-75
2021/06/19 00:59:12;;;;;;;14.38;12.75;;;18.70;99.90;;;;;;5029089;28;20029;-75
2021/06/19 01:01:38;;;;;;;14.45;12.85;;;18.60;99.90;;;;;;5011507;28;20485;-76
2021/06/19 01:04:05;;;;;;;15.80;13.88;;;18.60;99.90;;;;;;5029615;28;20103;-75
2021/06/19 01:06:33;;;;;;;14.30;12.80;;;18.60;99.90;;;;;;5011802;28;20029;-75
2021/06/19 01:08:59;;;;;;;14.68;13.10;;;18.60;99.90;;;;;;5029599;28;20410;-75
2021/06/19 01:11:26;;;;;;;16.42;12.45;;;18.50;99.90;;;;;;5011666;28;20026;-75
2021/06/19 01:13:52;;;;;;;16.50;12.73;;;18.50;99.90;;;;;;5011762;28;20030;-75
2021/06/19 01:16:19;;;;;;;16.85;12.82;;;18.50;99.90;;;;;;5011664;28;20022;-76
2021/06/19 01:18:46;;;;;;;13.38;11.93;;;18.50;99.90;;;;;;5029598;28;20057;-75
2021/06/19 01:21:16;;;;;;;15.07;11.77;;;18.40;99.90;;;;;;5011565;28;20490;-75
2021/06/19 01:23:43;;;;;;;15.35;12.90;;;18.40;99.90;;;;;;5029334;28;20025;-75
2021/06/19 01:26:13;;;;;;;15.00;12.60;;;18.30;99.90;;;;;;5011636;28;20021;-75
2021/06/19 01:28:39;;;;;;;14.45;12.65;;;18.30;99.90;;;;;;5029360;28;20029;-75
2021/06/19 01:31:05;;;;;;;16.42;12.52;;;18.30;99.90;;;;;;5029073;28;20550;-75
2021/06/19 01:33:30;;;;;;;13.85;12.38;;;18.20;99.90;;;;;;5011456;28;20057;-75
2021/06/19 01:35:56;;;;;;;14.82;12.07;;;18.20;99.90;;;;;;5029138;28;20512;-75
2021/06/19 01:38:21;;;;;;;17.80;13.27;;;18.20;99.90;;;;;;5029335;28;20057;-75
2021/06/19 01:40:47;;;;;;;16.33;11.27;;;18.20;99.90;;;;;;5011328;28;20022;-76
2021/06/19 01:43:13;;;;;;;15.43;12.25;;;18.10;99.90;;;;;;5053991;22;20045;-73
2021/06/19 01:45:38;;;;;;;13.50;11.70;;;18.00;99.90;;;;;;5029293;28;20135;-72
2021/06/19 01:48:07;;;;;;;15.88;12.75;;;18.00;99.90;;;;;;5029292;28;20028;-72
2021/06/19 01:50:34;;;;;;;13.68;11.50;;;17.90;99.90;;;;;;5011907;28;20440;-72
2021/06/19 01:53:00;;;;;;;15.43;12.57;;;17.90;99.90;;;;;;5029217;28;20033;-73
2021/06/19 01:55:27;;;;;;;13.85;11.52;;;17.90;99.90;;;;;;5029300;28;20032;-75
2021/06/19 01:57:55;;;;;;;13.38;10.63;;;17.80;99.90;;;;;;5029142;28;20478;-73
2021/06/19 02:00:26;;;;;;;14.43;12.20;;;17.80;99.90;;;;;;5011805;28;20433;-73
2021/06/19 02:02:52;;;;;;;12.52;10.95;;;17.70;99.90;;;;;;5011538;28;20029;-72
2021/06/19 02:05:19;;;;;;;12.23;10.20;;;17.70;99.90;;;;;;5011509;28;20026;-73
2021/06/19 02:07:48;;;;;;;15.85;13.07;;;17.70;99.90;;;;;;5011427;28;20536;-72
2021/06/19 02:10:14;;;;;;;15.68;12.73;;;17.70;99.90;;;;;;5029205;28;20033;-73
2021/06/19 02:12:41;;;;;;;14.38;11.88;;;17.60;99.90;;;;;;5032583;28;20021;-74
2021/06/19 02:15:08;;;;;;;16.48;13.77;;;17.60;99.90;;;;;;5033050;28;20022;-73
2021/06/19 02:17:33;;;;;;;14.90;13.38;;;17.60;99.90;;;;;;5032898;28;20432;-75
2021/06/19 02:19:59;;;;;;;16.55;12.88;;;17.60;99.90;;;;;;5015132;28;20025;-73
2021/06/19 02:22:24;;;;;;;15.85;13.05;;;17.50;99.90;;;;;;5015083;28;20014;-72
2021/06/19 02:24:50;;;;;;;17.42;13.48;;;17.50;99.90;;;;;;5032769;28;20021;-73
2021/06/19 02:27:16;;;;;;;16.67;11.75;;;17.50;99.90;;;;;;5032830;28;20034;-72
2021/06/19 02:29:41;;;;;;;15.85;12.20;;;17.40;99.90;;;;;;5015033;28;20017;-72
2021/06/19 02:32:10;;;;;;;13.68;12.30;;;17.40;99.90;;;;;;5032664;28;20045;-75
2021/06/19 02:34:36;;;;;;;15.88;13.50;;;17.40;99.90;;;;;;5032690;28;20072;-75
2021/06/19 02:37:03;;;;;;;14.90;13.40;;;17.30;99.90;;;;;;5014780;28;20035;-74
2021/06/19 02:39:28;;;;;;;17.35;13.98;;;17.30;99.90;;;;;;5032592;28;20060;-74
2021/06/19 02:41:54;;;;;;;14.93;13.10;;;17.30;99.90;;;;;;5032590;28;20065;-74
2021/06/19 02:44:20;;;;;;;18.33;14.93;;;17.30;99.90;;;;;;5032547;28;20022;-75
2021/06/19 02:46:46;;;;;;;20.33;15.68;;;17.30;99.90;;;;;;5032528;28;20371;-74
2021/06/19 02:49:11;;;;;;;15.20;13.73;;;17.30;99.90;;;;;;5032990;28;20048;-75
2021/06/19 02:51:37;;;;;;;16.90;14.25;;;17.20;99.90;;;;;;5032419;28;20052;-75
2021/06/19 02:54:02;;;;;;;15.93;13.75;;;17.20;99.90;;;;;;5014544;28;20025;-73
2021/06/19 02:56:28;;;;;;;15.13;13.60;;;17.20;99.90;;;;;;5014570;28;20028;-74
2021/06/19 02:58:53;;;;;;;17.27;15.57;;;17.10;99.90;;;;;;5014502;28;20025;-74
2021/06/19 03:01:19;;;;;;;15.05;13.55;;;17.10;99.90;;;;;;5032329;28;20047;-74
2021/06/19 03:03:44;;;;;;;15.52;13.23;;;17.10;99.90;;;;;;5014356;28;20049;-75
2021/06/19 03:06:10;;;;;;;14.48;12.90;;;17.10;99.90;;;;;;5032038;28;20127;-74
2021/06/19 03:08:35;;;;;;;16.38;14.65;;;17.10;99.90;;;;;;5032317;28;20033;-74
2021/06/19 03:11:01;;;;;;;19.50;15.32;;;17.10;99.90;;;;;;5032043;28;20033;-75
2021/06/19 03:13:27;;;;;;;14.93;13.38;;;17.10;99.90;;;;;;5031862;28;20034;-74
2021/06/19 03:15:53;;;;;;;20.92;16.00;;;17.10;99.90;;;;;;5032139;28;20024;-75
2021/06/19 03:18:18;;;;;;;15.10;13.50;;;17.20;99.90;;;;;;5014086;28;20494;-74
2021/06/19 03:20:44;;;;;;;15.32;13.73;;;17.20;99.90;;;;;;5031708;28;20017;-74
2021/06/19 03:23:09;;;;;;;15.05;13.45;;;17.20;99.90;;;;;;5012906;28;20056;-74
2021/06/19 03:25:40;;;;;;;15.38;13.60;;;17.20;99.90;;;;;;5013915;28;20063;-74
2021/06/19 03:28:06;;;;;;;15.98;14.43;;;17.20;99.90;;;;;;5031971;28;20051;-74
2021/06/19 03:30:34;;;;;;;15.90;14.15;;;17.30;99.90;;;;;;5032141;28;20030;-74
2021/06/19 03:33:00;;;;;;;16.33;14.63;;;17.30;99.90;;;;;;5013754;28;20021;-75
2021/06/19 03:35:27;;;;;;;15.63;13.95;;;17.40;99.90;;;;;;5013780;28;20083;-74
2021/06/19 03:37:54;;;;;;;16.27;13.80;;;17.40;99.90;;;;;;5031298;28;20036;-74
2021/06/19 03:40:21;;;;;;;16.92;13.23;;;17.40;99.90;;;;;;5013668;28;20116;-74
2021/06/19 03:42:51;;;;;;;15.73;14.10;;;17.50;99.90;;;;;;5013430;28;20061;-74
2021/06/19 03:45:18;;;;;;;16.02;14.02;;;17.60;99.90;;;;;;5013534;28;20482;-74
2021/06/19 03:47:45;;;;;;;14.52;13.05;;;17.60;99.90;;;;;;5031027;28;20086;-74
2021/06/19 03:50:12;;;;;;;15.63;13.88;;;17.70;99.90;;;;;;5030817;28;20033;-74
2021/06/19 03:52:38;;;;;;;17.75;12.95;;;17.80;99.90;;;;;;5031003;28;20036;-74
2021/06/19 03:55:07;;;;;;;17.08;13.25;;;17.80;99.90;;;;;;5031055;28;20030;-74
2021/06/19 03:57:34;;;;;;;16.15;14.20;;;17.80;99.90;;;;;;5030953;28;20068;-74
2021/06/19 04:00:00;;;;;;;15.43;12.55;;;17.90;99.90;;;;;;5031030;28;20018;-74
2021/06/19 04:02:26;;;;;;;16.20;13.50;;;17.90;99.90;;;;;;5013075;28;20021;-74
2021/06/19 04:04:53;;;;;;;14.57;12.98;;;17.90;99.90;;;;;;5013192;28;20039;-74
2021/06/19 04:07:19;;;;;;;13.95;12.55;;;18.00;99.90;;;;;;5030896;28;20025;-74
2021/06/19 04:09:47;;;;;;;17.42;14.23;;;18.00;99.90;;;;;;5030934;28;20032;-74
2021/06/19 04:12:13;;;;;;;15.55;13.65;;;18.00;99.90;;;;;;5030812;28;20072;-74
2021/06/19 04:14:38;;;;;;;15.20;13.63;;;18.00;99.90;;;;;;5013093;28;20433;-75
2021/06/19 04:17:07;;;;;;;14.35;12.43;;;18.10;99.90;;;;;;5030593;28;20029;-74
2021/06/19 04:19:33;;;;;;;15.05;13.45;;;18.20;99.90;;;;;;5030671;28;20017;-75
2021/06/19 04:21:58;;;;;;;16.95;14.90;;;18.30;99.90;;;;;;5030823;28;20113;-74
2021/06/19 04:24:24;;;;;;;16.10;14.48;;;18.40;99.90;;;;;;5030740;28;20097;-74
2021/06/19 04:26:49;;;;;;;15.90;14.13;;;18.50;99.90;;;;;;5012768;28;20045;-74
2021/06/19 04:29:15;;;;;;;20.10;14.60;;;18.70;99.90;;;;;;5012791;28;20120;-74
2021/06/19 04:31:41;;;;;;;16.67;14.98;;;18.80;99.90;;;;;;5012753;28;20044;-74
2021/06/19 04:34:07;;;;;;;16.33;14.23;;;18.80;99.90;;;;;;5030236;28;20101;-74
2021/06/19 04:36:32;;;;;;;16.55;14.60;;;19.00;99.90;;;;;;5030357;28;20540;-74
2021/06/19 04:38:58;;;;;;;16.63;14.57;;;19.10;99.90;;;;;;5012469;28;20025;-74
2021/06/19 04:46:15;;;;;;;15.02;13.43;;;19.30;99.90;;;;;;5030496;28;20017;-74
2021/06/19 04:48:40;;;;;;;14.55;12.38;;;19.40;99.90;;;;;;5030112;28;20107;-74
2021/06/19 04:51:06;;;;;;;16.98;14.07;;;19.50;99.90;;;;;;5030494;28;20080;-74
2021/06/19 04:53:31;;;;;;;16.23;14.63;;;19.60;99.90;;;;;;5012422;28;20030;-74
2021/06/19 04:56:01;;;;;;;16.02;14.27;;;19.70;99.90;;;;;;5012447;28;20025;-74
2021/06/19 04:58:27;;;;;;;15.63;14.02;;;19.80;99.90;;;;;;5012427;28;20116;-74
2021/06/19 05:00:53;;;;;;;13.93;11.57;;;19.90;99.90;;;;;;5012387;28;20048;-74
2021/06/19 05:03:18;;;;;;;15.00;12.52;;;20.00;99.90;;;;;;5012181;28;20464;-74
2021/06/19 05:05:44;;;;;;;13.80;12.50;;;20.10;99.90;;;;;;5029848;28;20022;-74
2021/06/19 05:08:10;;;;;;;14.02;12.52;;;20.30;99.90;;;;;;5029777;28;20038;-74
2021/06/19 05:10:36;;;;;;;15.63;14.13;;;20.40;99.90;;;;;;5012031;28;20544;-74
2021/06/19 05:13:02;;;;;;;16.10;14.40;;;20.60;99.90;;;;;;5011961;28;20079;-74
2021/06/19 05:15:27;;;;;;;13.70;12.35;;;20.70;99.90;;;;;;5029670;28;20067;-74
2021/06/19 05:17:54;;;;;;;14.30;12.90;;;20.80;99.90;;;;;;5011804;28;20022;-74
2021/06/19 05:20:20;;;;;;;14.35;12.40;;;20.90;99.90;;;;;;5011967;28;20022;-74
2021/06/19 05:22:45;;;;;;;14.90;13.40;;;21.00;99.90;;;;;;5029603;28;20109;-74
2021/06/19 05:25:13;;;;;;;13.80;12.10;;;21.10;99.90;;;;;;5029545;28;20029;-74
2021/06/19 05:27:39;;;;;;;14.18;12.77;;;21.20;99.90;;;;;;5011764;28;20048;-74
2021/06/19 05:30:05;;;;;;;13.82;12.43;;;21.30;99.90;;;;;;5029382;28;20061;-74
2021/06/19 05:32:31;;;;;;;11.98;10.77;;;21.40;99.90;;;;;;5011561;28;20038;-74
2021/06/19 05:34:57;;;;;;;15.05;12.38;;;21.60;99.90;;;;;;5011565;28;20025;-74
2021/06/19 05:37:22;;;;;;;13.85;11.43;;;21.70;99.90;;;;;;5011616;28;20132;-74
2021/06/19 05:39:48;;;;;;;14.10;12.35;;;21.80;99.90;;;;;;5011700;28;20072;-74
2021/06/19 05:42:13;;;;;;;14.98;13.30;;;21.90;99.90;;;;;;5029310;28;20040;-74
2021/06/19 05:44:39;;;;;;;12.73;11.48;;;22.00;99.90;;;;;;5029398;28;20486;-74
2021/06/19 05:47:06;;;;;;;15.75;12.55;;;22.10;99.90;;;;;;5034703;28;20540;-74
2021/06/19 05:49:31;;;;;;;13.40;12.10;;;22.10;99.90;;;;;;5035874;28;20100;-74
2021/06/19 05:51:57;;;;;;;13.18;11.23;;;22.30;99.90;;;;;;5035804;28;20033;-74
2021/06/19 05:54:23;;;;;;;15.55;12.43;;;22.40;99.90;;;;;;5035828;28;20440;-74
2021/06/19 05:56:48;;;;;;;14.65;12.45;;;22.50;99.90;;;;;;5017979;28;20448;-74
2021/06/19 05:59:14;;;;;;;13.38;11.85;;;22.60;99.90;;;;;;5035993;28;20022;-74
2021/06/19 06:01:39;;;;;;;12.23;11.02;;;22.70;99.90;;;;;;5035698;28;20104;-74
2021/06/19 06:04:05;;;;;;;13.00;10.90;;;22.90;99.90;;;;;;5018078;28;20025;-74
2021/06/19 06:06:30;;;;;;;14.50;12.05;;;23.10;99.90;;;;;;5035791;28;20076;-74
2021/06/19 06:08:56;;;;;;;12.68;11.43;;;23.20;99.90;;;;;;5035883;28;20053;-74
2021/06/19 06:11:22;;;;;;;14.30;11.27;;;23.30;99.90;;;;;;5017795;28;20035;-74
2021/06/19 06:13:47;;;;;;;12.57;11.27;;;23.50;99.90;;;;;;5018025;28;20052;-75
2021/06/19 06:16:13;;;;;;;19.02;14.70;;;23.60;99.90;;;;;;5035667;28;20026;-74
2021/06/19 06:18:38;;;;;;;14.20;12.70;;;23.80;99.90;;;;;;5035888;28;20032;-75
2021/06/19 06:21:05;;;;;;;16.85;12.48;;;24.00;99.90;;;;;;5018539;28;20018;-75
2021/06/19 06:23:31;;;;;;;11.85;10.60;;;24.10;99.90;;;;;;5017843;28;20035;-75
2021/06/19 06:25:57;;;;;;;15.38;11.90;;;24.20;99.90;;;;;;5035544;28;20021;-74
2021/06/19 06:28:23;;;;;;;14.60;12.35;;;24.40;99.90;;;;;;5035901;28;20025;-74
2021/06/19 06:30:49;;;;;;;16.40;12.32;;;24.50;99.90;;;;;;5035671;28;20030;-75
2021/06/19 06:33:15;;;;;;;14.45;10.98;;;24.70;99.90;;;;;;5017659;28;20400;-74
2021/06/19 06:35:40;;;;;;;15.68;10.85;;;24.90;99.90;;;;;;5035561;28;20029;-74
2021/06/19 06:38:06;;;;;;;12.55;11.27;;;25.00;99.90;;;;;;5035716;28;20032;-74
2021/06/19 06:40:32;;;;;;;13.38;10.88;;;25.20;99.90;;;;;;5035759;28;20025;-74
2021/06/19 06:42:57;;;;;;;13.60;11.50;;;25.20;99.90;;;;;;5035251;28;20025;-75
2021/06/19 06:45:23;;;;;;;12.73;10.93;;;25.30;99.90;;;;;;5035783;28;20527;-75
2021/06/19 06:47:49;;;;;;;13.52;11.18;;;25.40;99.90;;;;;;5035732;28;20478;-75
2021/06/19 06:50:15;;;;;;;12.48;11.18;;;25.50;99.90;;;;;;5035395;28;20071;-75
2021/06/19 06:52:41;;;;;;;13.43;11.65;;;25.60;99.90;;;;;;5035288;28;20488;-75
2021/06/19 06:55:08;;;;;;;11.90;10.70;;;25.80;99.90;;;;;;5017617;28;20022;-74
2021/06/19 06:57:35;;;;;;;13.13;11.13;;;25.90;99.90;;;;;;5033817;28;20024;-75
2021/06/19 07:00:01;;;;;;;15.02;11.25;;;26.00;99.90;;;;;;5014387;28;20455;-75
2021/06/19 07:02:28;;;;;;;14.27;11.45;;;26.30;99.90;;;;;;5032036;28;20108;-75
2021/06/19 07:04:54;;;;;;;12.30;11.10;;;26.40;99.90;;;;;;5014622;28;20037;-76
